METAR AND TAF INFORMATION
METAR FOR KADM
ADDS - METARS form results

(1208 UTC 28 February 2020)
Data provider http://aviationweather.gov/metar/data/
 
METAR text: KADM 281155Z AUTO 28003KT 10SM CLR 01/00 A3032 RMK AO2 T00121003 10071 20012
Conditions at: KADM (ARDMORE , OK, US) observed 1155 UTC 28 February 2020
Temperature: 1.2°C (34°F)
Dewpoint: -0.3°C (31°F) [RH = 90%]
Pressure (altimeter): 30.32 inches Hg (1026.8 mb)
Winds: from the W (280 degrees) at 3 MPH (3 knots; 1.5 m/s)
Visibility: 10 or more miles (16+ km)
Ceiling: at least 12,000 feet AGL
Clouds: sky clear below 12,000 feet AGL
Weather: automated observation with no human augmentation;
there may or may not be significant weather present at this time

METAR text: KADM 281135Z AUTO 00000KT 10SM CLR 03/00 A3032 RMK AO2 T00280004
Conditions at: KADM (ARDMORE , OK, US) observed 1135 UTC 28 February 2020
Temperature: 2.8°C (37°F)
Dewpoint: 0.4°C (33°F) [RH = 84%]
Pressure (altimeter): 30.32 inches Hg (1026.8 mb)
Winds: calm
Visibility: 10 or more miles (16+ km)
Ceiling: at least 12,000 feet AGL
Clouds: sky clear below 12,000 feet AGL
Weather: automated observation with no human augmentation;
there may or may not be significant weather present at this time

METAR text: KADM 281115Z AUTO 33003KT 10SM CLR 04/01 A3031 RMK AO2 T00360008
Conditions at: KADM (ARDMORE , OK, US) observed 1115 UTC 28 February 2020
Temperature: 3.6°C (38°F)
Dewpoint: 0.8°C (33°F) [RH = 82%]
Pressure (altimeter): 30.31 inches Hg (1026.5 mb)
Winds: from the NNW (330 degrees) at 3 MPH (3 knots; 1.5 m/s)
Visibility: 10 or more miles (16+ km)
Ceiling: at least 12,000 feet AGL
Clouds: sky clear below 12,000 feet AGL
Weather: automated observation with no human augmentation;
there may or may not be significant weather present at this time

 AIRPORT MAP

 RUNWAY INFORMATION
Runway 04 Runway length 6761 ft Runway width 150 ft
Runway elevation 725 ft Runway displaced threshold 0 ft Runway heading 46
Runway 22 Runway length 6761 ft Runway width 150 ft
Runway elevation 738 ft Runway displaced threshold 0 ft Runway heading 226
Runway 08 Runway length 7225 ft Runway width 150 ft
Runway elevation 0 ft Runway displaced threshold 0 ft Runway heading 85
Runway 26 Runway length 7225 ft Runway width 150 ft
Runway elevation 0 ft Runway displaced threshold 0 ft Runway heading 265
Runway 13 Runway length 7220 ft Runway width 150 ft
Runway elevation 762 ft Runway displaced threshold 0 ft Runway heading 135
Runway 31 Runway length 7220 ft Runway width 150 ft
Runway elevation 729 ft Runway displaced threshold 300 ft Runway heading 315
Runway 17 Runway length 5006 ft Runway width 100 ft
Runway elevation 753 ft Runway displaced threshold 0 ft Runway heading 180
Runway 35 Runway length 5006 ft Runway width 100 ft
Runway elevation 725 ft Runway displaced threshold 0 ft Runway heading 0

 AIRPORT FREQUENCIES
Type ATIS Name ATIS Frequency 125.6 MHZ
Type CNTR Name FORT WORTH Frequency 128.1 MHZ
Type CTAF Name CTAF Frequency 118.5 MHZ
Type GND Name GND Frequency 121.8 MHZ
Type RDO Name MC ALESTER Frequency 122.55 MHZ
Type TWR Name TWR Frequency 118.5 MHZ
Type UNIC Name UNICOM Frequency 122.95 MHZ

 AIRPORT NEAR NAVIGATION AIDS



Powered by Virtual Airlines Manager [v2.6.2]